Time;durP1;ratioP1;P1;durP2;ratioP2;P2;SDS_P1;SDS_P2;PMS_P1;PMS_P2;Temp;Humidity;BMP_temperature;BMP_pressure;BME280_temperature;BME280_humidity;BME280_pressure;Samples;Min_cycle;Max_cycle;Signal;HPM_P1;HPM_P2
2023/12/13 00:01:27;;;;;;;30.77;12.50;;;;;;;3.46;100.00;99641.56;4951427;28;20450;-80
2023/12/13 00:04:49;;;;;;;32.05;12.70;;;;;;;3.58;100.00;99653.59;4946506;28;20050;-77
2023/12/13 00:08:11;;;;;;;31.05;13.15;;;;;;;3.61;100.00;99652.50;4932623;28;20050;-78
2023/12/13 00:11:32;;;;;;;36.40;14.68;;;;;;;3.64;100.00;99649.56;4946612;28;20070;-80
2023/12/13 00:14:55;;;;;;;30.23;12.50;;;;;;;3.56;100.00;99629.19;4947434;28;20050;-79
2023/12/13 00:18:17;;;;;;;33.10;12.45;;;;;;;3.75;100.00;99634.38;4935688;28;20050;-78
2023/12/13 00:21:39;;;;;;;28.70;12.18;;;;;;;3.59;100.00;99620.97;4932667;28;20046;-79
2023/12/13 00:25:00;;;;;;;26.65;11.52;;;;;;;3.68;100.00;99621.91;4932960;28;20041;-79
2023/12/13 00:28:22;;;;;;;32.40;14.25;;;;;;;3.71;100.00;99618.97;4933782;28;20810;-80
2023/12/13 00:31:44;;;;;;;29.15;13.13;;;;;;;3.69;100.00;99611.19;4949574;28;20454;-78
2023/12/13 00:35:06;;;;;;;30.08;12.30;;;;;;;3.53;100.00;99600.44;4951025;28;20133;-77
2023/12/13 00:38:28;;;;;;;30.30;13.32;;;;;;;3.56;100.00;99597.53;4950343;28;20178;-80
2023/12/13 00:41:49;;;;;;;26.13;12.35;;;;;;;3.55;100.00;99596.66;4948702;28;20078;-78
2023/12/13 00:45:11;;;;;;;31.25;13.27;;;;;;;3.58;100.00;99600.81;4948179;28;20050;-78
2023/12/13 00:48:33;;;;;;;30.73;13.93;;;;;;;3.65;100.00;99596.63;4928841;28;20581;-79
2023/12/13 00:51:55;;;;;;;24.30;11.20;;;;;;;3.61;100.00;99592.63;4949461;28;20090;-80
2023/12/13 00:55:16;;;;;;;27.00;14.35;;;;;;;3.67;100.00;99594.66;4942430;28;20098;-78
2023/12/13 00:58:38;;;;;;;28.63;13.70;;;;;;;3.71;100.00;99593.41;4935581;28;20103;-79
2023/12/13 01:02:00;;;;;;;26.40;12.68;;;;;;;3.56;100.00;99582.50;4949760;28;20066;-80
2023/12/13 01:05:22;;;;;;;27.42;13.38;;;;;;;3.63;100.00;99593.31;4933035;28;20601;-79
2023/12/13 01:08:43;;;;;;;31.23;15.20;;;;;;;3.47;100.00;99588.66;4942168;28;20042;-78
2023/12/13 01:33:32;;;;;;;35.70;15.52;;;;;;;3.64;100.00;99594.97;4951270;28;20098;-78
2023/12/13 01:35:57;;;;;;;29.83;14.55;;;;;;;3.76;100.00;99596.44;4924046;29;20541;-78
2023/12/13 01:38:22;;;;;;;31.63;14.77;;;;;;;3.73;100.00;99594.09;4917957;29;20241;-78
2023/12/13 01:40:51;;;;;;;34.37;14.97;;;;;;;3.70;100.00;99598.81;4936369;28;20314;-80
2023/12/13 01:43:22;;;;;;;34.30;15.95;;;;;;;3.78;100.00;99591.00;4938366;29;20091;-78
2023/12/13 01:45:48;;;;;;;43.55;15.90;;;;;;;3.96;100.00;99605.09;4951980;28;20475;-77
2023/12/13 01:48:13;;;;;;;33.10;15.50;;;;;;;3.89;100.00;99597.91;4938372;29;20019;-78
2023/12/13 01:50:39;;;;;;;36.63;16.73;;;;;;;3.79;100.00;99582.94;4956357;28;20034;-78
2023/12/13 01:53:06;;;;;;;38.88;17.63;;;;;;;3.74;100.00;99571.97;4953739;28;20820;-80
2023/12/13 01:55:32;;;;;;;40.58;17.33;;;;;;;3.96;100.00;99589.25;4954781;28;20035;-79
2023/12/13 01:57:57;;;;;;;40.33;18.05;;;;;;;3.93;100.00;99583.41;4953125;28;20030;-78
2023/12/13 02:00:23;;;;;;;38.10;16.00;;;;;;;3.96;100.00;99585.78;4953807;28;20038;-78
2023/12/13 02:02:49;;;;;;;45.47;19.65;;;;;;;3.93;100.00;99578.13;4954933;28;20395;-79
2023/12/13 02:05:16;;;;;;;40.28;17.95;;;;;;;4.04;100.00;99585.84;4949790;28;20039;-78
2023/12/13 02:07:42;;;;;;;47.58;19.55;;;;;;;3.97;100.00;99579.50;4941208;28;20035;-78
2023/12/13 02:10:08;;;;;;;47.47;17.92;;;;;;;3.89;100.00;99584.72;4952285;28;20093;-78
2023/12/13 02:12:34;;;;;;;44.28;17.92;;;;;;;3.76;100.00;99575.31;4946311;28;20118;-77
2023/12/13 02:15:00;;;;;;;;;;;;;;;3.83;100.00;99577.38;4936605;29;20042;-78
2023/12/13 02:17:25;;;;;;;47.40;17.40;;;;;;;3.89;100.00;99576.78;4954419;28;19910;-79
2023/12/13 02:19:51;;;;;;;57.23;18.10;;;;;;;3.71;100.00;99567.00;4935348;29;20566;-79
2023/12/13 02:22:16;;;;;;;54.22;20.95;;;;;;;3.88;100.00;99570.66;4945549;28;20754;-77
2023/12/13 02:24:45;;;;;;;59.67;19.47;;;;;;;3.89;100.00;99571.50;4937052;28;20043;-78
2023/12/13 02:27:10;;;;;;;60.88;21.27;;;;;;;3.80;100.00;99568.75;4938599;29;20046;-78
2023/12/13 02:29:36;;;;;;;57.20;20.60;;;;;;;3.79;100.00;99561.84;4954739;28;20387;-78
2023/12/13 02:32:01;;;;;;;55.27;19.60;;;;;;;3.76;100.00;99556.81;4941470;29;20050;-80
2023/12/13 02:34:26;;;;;;;59.27;19.00;;;;;;;3.62;100.00;99559.97;4955933;28;20283;-81
2023/12/13 02:36:52;;;;;;;50.45;18.55;;;;;;;3.82;100.00;99568.63;4939735;29;20038;-78
2023/12/13 02:39:18;;;;;;;50.28;18.08;;;;;;;3.84;100.00;99571.09;4938109;29;20034;-78
2023/12/13 02:41:43;;;;;;;47.38;17.60;;;;;;;3.93;100.00;99568.44;4930142;28;20039;-80
2023/12/13 02:44:08;;;;;;;48.70;17.80;;;;;;;3.78;100.00;99551.41;4948575;28;20039;-78
2023/12/13 02:46:34;;;;;;;42.85;17.20;;;;;;;3.98;100.00;99562.66;4955394;28;20043;-78
2023/12/13 02:48:59;;;;;;;46.60;17.98;;;;;;;3.98;100.00;99557.38;4941478;29;20066;-79
2023/12/13 02:51:26;;;;;;;48.47;17.23;;;;;;;3.94;100.00;99553.41;4932464;29;20469;-80
2023/12/13 02:53:51;;;;;;;46.55;16.13;;;;;;;3.95;100.00;99561.16;4953739;28;20478;-81
2023/12/13 02:56:17;;;;;;;47.03;16.60;;;;;;;3.86;100.00;99561.22;4938284;29;20050;-78
2023/12/13 02:58:42;;;;;;;47.63;17.17;;;;;;;3.79;100.00;99545.13;4923411;28;20031;-78
2023/12/13 03:01:07;;;;;;;41.13;18.87;;;;;;;3.80;100.00;99547.63;4956932;28;20318;-79
2023/12/13 03:03:33;;;;;;;43.50;17.88;;;;;;;3.68;100.00;99543.56;4938790;28;20039;-79
2023/12/13 03:05:58;;;;;;;43.08;16.33;;;;;;;3.57;100.00;99541.09;4937862;28;20038;-80
2023/12/13 03:08:23;;;;;;;43.10;15.75;;;;;;;3.78;100.00;99546.94;4932982;29;20035;-81
2023/12/13 03:10:49;;;;;;;42.35;15.18;;;;;;;3.82;100.00;99544.88;4923553;28;20038;-80
2023/12/13 03:13:14;;;;;;;48.65;15.60;;;;;;;3.64;100.00;99550.09;4933061;29;20045;-80
2023/12/13 03:15:40;;;;;;;42.77;15.90;;;;;;;3.65;100.00;99550.91;4923983;28;20046;-80
2023/12/13 03:18:05;;;;;;;44.70;15.80;;;;;;;3.60;100.00;99546.09;4913891;29;20036;-80
2023/12/13 03:20:30;;;;;;;41.00;17.33;;;;;;;3.80;100.00;99560.03;4947254;28;20045;-79
2023/12/13 03:22:56;;;;;;;50.85;16.83;;;;;;;3.64;100.00;99546.63;4929400;29;20118;-79
2023/12/13 03:25:22;;;;;;;53.40;17.15;;;;;;;3.86;100.00;99562.03;4928703;29;20058;-80
2023/12/13 03:27:47;;;;;;;45.72;15.90;;;;;;;3.86;100.00;99555.94;4916457;28;20047;-81
2023/12/13 03:30:13;;;;;;;50.75;16.55;;;;;;;3.75;100.00;99551.72;4929371;29;20031;-81
2023/12/13 03:32:38;;;;;;;49.13;16.88;;;;;;;3.79;100.00;99551.28;4915163;29;20027;-81
2023/12/13 03:35:06;;;;;;;52.67;16.25;;;;;;;3.90;100.00;99559.94;4948562;28;20879;-81
2023/12/13 03:37:33;;;;;;;36.95;15.10;;;;;;;3.66;100.00;99534.94;4933097;28;20054;-81
2023/12/13 03:39:58;;;;;;;38.40;14.00;;;;;;;3.78;100.00;99544.31;4967224;28;20026;-80
2023/12/13 03:42:24;;;;;;;36.63;13.93;;;;;;;3.70;100.00;99552.16;4933688;29;20035;-81
2023/12/13 03:44:49;;;;;;;37.50;15.10;;;;;;;3.65;100.00;99543.81;4949292;28;20113;-81
2023/12/13 03:47:14;;;;;;;37.30;14.87;;;;;;;3.68;100.00;99554.09;4918019;29;20303;-82
2023/12/13 03:49:40;;;;;;;37.70;15.13;;;;;;;3.56;100.00;99537.66;4950323;28;20035;-81
2023/12/13 03:52:07;;;;;;;39.47;15.33;;;;;;;3.56;100.00;99550.00;4917440;29;20031;-81
2023/12/13 03:54:32;;;;;;;32.97;13.98;;;;;;;3.42;100.00;99538.13;4933310;28;20294;-82
2023/12/13 03:56:58;;;;;;;30.80;13.50;;;;;;;3.63;100.00;99553.72;4948000;28;20043;-82
2023/12/13 03:59:23;;;;;;;37.40;14.27;;;;;;;3.69;100.00;99542.56;4950140;28;20516;-81
2023/12/13 04:01:49;;;;;;;35.33;12.88;;;;;;;3.60;100.00;99524.97;4934360;28;20130;-82
2023/12/13 04:04:14;;;;;;;33.60;13.40;;;;;;;3.89;100.00;99551.22;4933089;29;20509;-81
2023/12/13 04:06:39;;;;;;;30.02;12.80;;;;;;;3.75;100.00;99534.06;4918091;28;20035;-82
2023/12/13 04:09:05;;;;;;;28.23;11.93;;;;;;;3.71;100.00;99532.69;4930555;29;20046;-82
2023/12/13 04:11:30;;;;;;;27.05;11.60;;;;;;;3.71;100.00;99527.41;4933109;28;20046;-81
2023/12/13 04:13:55;;;;;;;28.13;11.52;;;;;;;3.78;100.00;99525.84;4940574;28;20106;-81
2023/12/13 04:16:21;;;;;;;24.85;11.32;;;;;;;3.73;100.00;99529.91;4960321;28;20027;-81
2023/12/13 04:18:46;;;;;;;27.27;12.45;;;;;;;3.77;100.00;99524.19;4934983;28;20051;-82
2023/12/13 04:21:12;;;;;;;30.70;12.87;;;;;;;3.74;100.00;99521.81;4935635;29;20039;-83
2023/12/13 04:23:37;;;;;;;26.92;12.98;;;;;;;3.53;100.00;99513.34;4933012;28;20289;-82
2023/12/13 04:26:03;;;;;;;29.17;11.45;;;;;;;3.72;100.00;99521.16;4932740;29;20083;-83
2023/12/13 04:28:29;;;;;;;24.52;10.95;;;;;;;3.79;100.00;99524.00;4933292;29;20019;-82
2023/12/13 04:30:54;;;;;;;25.95;10.18;;;;;;;3.60;100.00;99514.41;4949025;28;20047;-82
2023/12/13 04:33:19;;;;;;;23.10;10.50;;;;;;;3.62;100.00;99512.44;4944381;29;20058;-82
2023/12/13 04:35:46;;;;;;;27.30;11.53;;;;;;;3.61;100.00;99521.38;4947618;29;20031;-81
2023/12/13 04:38:11;;;;;;;28.70;10.55;;;;;;;3.69;100.00;99520.63;4934240;29;20730;-82
2023/12/13 04:40:36;;;;;;;19.48;9.93;;;;;;;3.67;100.00;99526.03;4919272;29;20118;-82
2023/12/13 04:43:02;;;;;;;24.95;10.05;;;;;;;3.56;100.00;99507.78;4953457;28;20058;-82
2023/12/13 04:45:27;;;;;;;23.33;8.52;;;;;;;3.62;100.00;99530.94;4952715;28;20529;-82
2023/12/13 04:47:53;;;;;;;26.73;10.30;;;;;;;3.53;100.00;99524.72;4948881;28;20078;-82
2023/12/13 04:50:18;;;;;;;26.10;10.73;;;;;;;3.63;100.00;99524.69;4933019;29;20027;-82
2023/12/13 04:52:43;;;;;;;25.10;9.63;;;;;;;3.67;100.00;99523.41;4932850;28;20118;-82
2023/12/13 04:55:09;;;;;;;24.93;10.67;;;;;;;3.68;100.00;99522.44;4945040;28;20106;-81
2023/12/13 04:57:34;;;;;;;24.48;10.35;;;;;;;3.64;100.00;99520.22;4936739;28;20058;-83
2023/12/13 05:00:18;;;;;;;24.80;10.87;;;;;;;3.59;100.00;99524.13;4936573;29;20062;-82
2023/12/13 05:03:02;;;;;;;24.65;10.60;;;;;;;3.64;100.00;99523.69;4936372;28;20309;-81
2023/12/13 05:05:27;;;;;;;25.05;10.43;;;;;;;3.65;100.00;99527.16;4941189;29;20039;-81
2023/12/13 05:07:53;;;;;;;30.10;12.53;;;;;;;3.74;100.00;99526.28;4928162;28;20030;-82
2023/12/13 05:10:18;;;;;;;24.80;10.67;;;;;;;3.67;100.00;99527.84;4936670;29;20302;-82
2023/12/13 05:12:43;;;;;;;28.20;12.27;;;;;;;3.68;100.00;99527.72;4947150;28;20499;-82
2023/12/13 05:15:09;;;;;;;24.93;10.57;;;;;;;3.63;100.00;99524.69;4947439;28;20775;-82
2023/12/13 05:17:34;;;;;;;26.08;10.27;;;;;;;3.67;100.00;99517.28;4949681;28;20063;-82
2023/12/13 05:20:00;;;;;;;21.63;9.67;;;;;;;3.77;100.00;99532.09;4940835;29;20613;-82
2023/12/13 05:22:25;;;;;;;23.45;11.20;;;;;;;3.68;100.00;99530.34;4952348;28;20384;-81
2023/12/13 05:24:51;;;;;;;30.42;10.05;;;;;;;3.77;100.00;99528.63;4932569;28;20039;-82
2023/12/13 05:27:34;;;;;;;29.33;12.90;;;;;;;3.72;100.00;99530.88;4936765;29;20435;-83
2023/12/13 05:29:59;;;;;;;26.60;11.98;;;;;;;3.80;100.00;99531.81;4925659;29;20024;-82
2023/12/13 05:32:24;;;;;;;25.65;10.82;;;;;;;3.85;100.00;99533.16;4947443;28;20034;-81
2023/12/13 05:34:50;;;;;;;26.27;10.93;;;;;;;3.85;100.00;99533.16;4935618;28;20194;-81
2023/12/13 05:37:15;;;;;;;25.87;8.97;;;;;;;3.81;100.00;99533.44;4936093;28;20289;-81
2023/12/13 05:39:40;;;;;;;21.33;9.90;;;;;;;3.84;100.00;99531.50;4937623;28;20038;-82
2023/12/13 05:42:06;;;;;;;22.27;9.27;;;;;;;3.99;100.00;99540.56;4945015;29;20282;-82
2023/12/13 05:44:31;;;;;;;30.13;11.25;;;;;;;4.05;100.00;99540.00;4935564;29;20134;-82
2023/12/13 05:46:56;;;;;;;23.08;9.85;;;;;;;3.71;100.00;99508.09;4952854;28;20035;-82
2023/12/13 05:49:22;;;;;;;21.80;9.47;;;;;;;3.72;100.00;99523.81;4946839;29;20042;-81
2023/12/13 05:51:48;;;;;;;24.30;9.15;;;;;;;3.69;100.00;99526.72;4934264;28;20284;-82
2023/12/13 05:54:13;;;;;;;19.67;9.52;;;;;;;3.80;100.00;99520.41;4937861;29;20034;-82
2023/12/13 05:56:38;;;;;;;24.55;9.43;;;;;;;3.80;100.00;99525.69;4932927;28;20417;-81
2023/12/13 05:59:04;;;;;;;21.83;9.30;;;;;;;3.72;100.00;99525.59;4934239;29;20034;-81
2023/12/13 06:01:30;;;;;;;;;;;;;;;3.92;100.00;99532.41;4935798;29;20058;-80
2023/12/13 06:03:55;;;;;;;21.77;7.68;;;;;;;3.76;100.00;99538.34;4934435;28;20381;-80
2023/12/13 06:06:20;;;;;;;24.97;10.33;;;;;;;3.78;100.00;99531.13;4942396;28;20148;-81
2023/12/13 06:08:46;;;;;;;24.13;9.02;;;;;;;3.72;100.00;99531.72;4944877;28;20065;-82
2023/12/13 06:11:11;;;;;;;22.45;9.05;;;;;;;3.75;100.00;99536.69;4951941;28;20518;-82
2023/12/13 06:13:37;;;;;;;19.52;8.82;;;;;;;3.83;100.00;99541.22;4945429;28;20184;-81
2023/12/13 06:16:02;;;;;;;22.87;8.23;;;;;;;3.67;100.00;99541.03;4943888;29;20034;-82
2023/12/13 06:18:28;;;;;;;21.17;7.00;;;;;;;3.61;100.00;99531.09;4931394;29;20359;-82
2023/12/13 06:20:53;;;;;;;23.55;9.05;;;;;;;3.70;100.00;99546.03;4949854;28;20475;-80
2023/12/13 06:23:18;;;;;;;19.35;7.68;;;;;;;3.52;100.00;99531.00;4934543;29;20517;-81
2023/12/13 06:25:44;;;;;;;11.15;5.28;;;;;;;3.61;100.00;99539.03;4934339;28;20074;-80
2023/12/13 06:28:09;;;;;;;18.67;7.43;;;;;;;3.70;100.00;99541.59;4943306;29;20687;-81
2023/12/13 06:30:35;;;;;;;16.80;6.63;;;;;;;3.66;100.00;99540.22;4934648;28;20290;-82
2023/12/13 06:33:00;;;;;;;19.35;7.72;;;;;;;3.64;100.00;99544.00;4935410;29;20034;-82
2023/12/13 06:35:25;;;;;;;16.88;7.80;;;;;;;3.76;100.00;99541.00;4934465;29;20395;-82
2023/12/13 06:37:50;;;;;;;14.87;7.00;;;;;;;3.70;100.00;99536.31;4918683;28;20145;-83
2023/12/13 06:40:18;;;;;;;15.30;7.18;;;;;;;3.78;100.00;99544.31;4933961;29;20090;-83
2023/12/13 06:42:43;;;;;;;13.85;6.88;;;;;;;3.68;100.00;99543.56;4949821;28;20482;-82
2023/12/13 06:45:09;;;;;;;16.70;7.22;;;;;;;3.81;100.00;99536.09;4934161;29;20364;-82
2023/12/13 06:47:34;;;;;;;17.83;6.90;;;;;;;3.93;100.00;99546.44;4946900;28;20410;-81
2023/12/13 06:49:59;;;;;;;13.40;7.22;;;;;;;3.75;100.00;99536.69;4949922;28;20487;-82
2023/12/13 06:52:25;;;;;;;17.20;6.80;;;;;;;3.83;100.00;99546.50;4944931;29;20066;-82
2023/12/13 06:54:50;;;;;;;16.42;6.88;;;;;;;3.76;100.00;99535.72;4944139;28;20038;-81
2023/12/13 06:57:16;;;;;;;15.65;7.75;;;;;;;3.93;100.00;99549.09;4949509;28;20106;-83
2023/12/13 06:59:42;;;;;;;12.73;6.68;;;;;;;3.79;100.00;99540.72;4933409;28;20499;-80
2023/12/13 07:02:07;;;;;;;14.52;6.35;;;;;;;3.87;100.00;99549.69;4933466;29;20039;-82
2023/12/13 07:04:35;;;;;;;13.45;6.50;;;;;;;3.98;100.00;99549.47;4943037;28;20031;-83
2023/12/13 07:07:00;;;;;;;14.68;6.43;;;;;;;3.71;100.00;99540.59;4930401;29;20398;-83
2023/12/13 07:09:26;;;;;;;12.68;6.28;;;;;;;3.70;100.00;99544.25;4933650;29;20039;-80
2023/12/13 07:11:51;;;;;;;15.80;7.83;;;;;;;3.92;100.00;99556.19;4940109;28;20050;-81
2023/12/13 07:14:16;;;;;;;12.17;7.50;;;;;;;3.88;100.00;99549.53;4941029;29;20666;-82
2023/12/13 07:16:43;;;;;;;18.50;6.83;;;;;;;4.06;100.00;99561.94;4942335;28;20039;-82
2023/12/13 07:19:09;;;;;;;10.38;5.57;;;;;;;4.01;100.00;99560.56;4935930;28;20317;-82
2023/12/13 07:21:34;;;;;;;11.73;5.82;;;;;;;3.98;100.00;99549.47;4938421;29;20048;-83
2023/12/13 07:24:00;;;;;;;12.00;5.57;;;;;;;3.96;100.00;99551.44;4938103;28;20027;-82
2023/12/13 07:26:25;;;;;;;13.23;6.83;;;;;;;3.94;100.00;99548.94;4941164;29;20482;-85
2023/12/13 07:28:50;;;;;;;14.57;5.88;;;;;;;3.77;100.00;99550.59;4948599;28;20054;-82
2023/12/13 07:31:16;;;;;;;11.03;6.00;;;;;;;3.80;100.00;99554.75;4943318;29;20066;-83
2023/12/13 07:33:41;;;;;;;11.07;6.07;;;;;;;3.97;100.00;99563.66;4948785;28;20361;-83
2023/12/13 07:36:07;;;;;;;13.50;6.28;;;;;;;3.98;100.00;99573.22;4942231;29;20027;-83
2023/12/13 07:38:41;;;;;;;14.80;6.93;;;;;;;3.74;100.00;99564.06;5084658;28;20451;-86
2023/12/13 07:41:09;;;;;;;14.27;7.78;;;;;;;3.88;100.00;99565.38;5058443;28;20530;-85
2023/12/13 07:43:34;;;;;;;13.90;5.63;;;;;;;3.97;100.00;99579.50;5069996;28;20048;-87
2023/12/13 07:46:00;;;;;;;15.93;6.70;;;;;;;4.04;100.00;99566.53;5078529;28;20025;-85
2023/12/13 07:48:25;;;;;;;17.50;7.83;;;;;;;3.93;100.00;99567.56;5078615;28;20024;-85
2023/12/13 07:50:51;;;;;;;10.53;5.67;;;;;;;3.87;100.00;99552.34;5055232;28;20128;-85
2023/12/13 07:53:17;;;;;;;11.02;5.45;;;;;;;3.97;100.00;99571.59;5072069;28;20286;-84
2023/12/13 07:55:42;;;;;;;12.73;5.88;;;;;;;3.89;100.00;99567.06;5063822;28;20123;-84
2023/12/13 07:58:08;;;;;;;11.13;6.07;;;;;;;3.88;100.00;99569.84;5079036;28;20062;-85
2023/12/13 08:00:33;;;;;;;13.70;6.47;;;;;;;4.01;100.00;99575.59;5064914;28;20494;-84
2023/12/13 08:02:59;;;;;;;12.80;6.65;;;;;;;4.10;100.00;99582.63;5086364;28;20737;-84
2023/12/13 08:05:24;;;;;;;13.23;5.95;;;;;;;3.73;100.00;99561.59;5080277;28;20036;-85
2023/12/13 08:07:49;;;;;;;11.60;5.97;;;;;;;3.64;100.00;99565.09;5060613;28;20044;-85
2023/12/13 08:10:15;;;;;;;16.47;7.83;;;;;;;3.89;100.00;99587.34;5078425;28;20290;-85
2023/12/13 08:12:43;;;;;;;14.63;6.95;;;;;;;3.89;100.00;99584.72;5078914;28;20040;-85
2023/12/13 08:15:10;;;;;;;16.13;7.55;;;;;;;4.03;100.00;99589.50;5061136;28;20031;-85
2023/12/13 08:17:35;;;;;;;11.77;6.40;;;;;;;3.91;100.00;99580.09;5069174;28;20038;-85
2023/12/13 08:20:01;;;;;;;13.27;6.28;;;;;;;3.94;100.00;99585.09;5052536;28;20032;-84
2023/12/13 08:22:26;;;;;;;13.20;6.27;;;;;;;3.90;100.00;99595.09;5086115;28;20036;-85
2023/12/13 08:24:52;;;;;;;14.40;6.13;;;;;;;3.90;100.00;99595.09;5069310;28;20040;-84
2023/12/13 08:27:17;;;;;;;11.45;5.90;;;;;;;4.00;100.00;99592.41;5070193;28;20020;-84
2023/12/13 08:29:42;;;;;;;13.25;6.13;;;;;;;3.97;100.00;99603.28;5085562;28;20040;-83
2023/12/13 08:32:08;;;;;;;12.05;5.88;;;;;;;3.95;100.00;99598.13;5086297;28;20102;-84
2023/12/13 08:34:33;;;;;;;9.13;4.85;;;;;;;3.91;100.00;99591.50;5062001;28;20078;-85
2023/12/13 08:37:00;;;;;;;10.03;5.70;;;;;;;4.09;100.00;99599.44;5068397;28;20119;-83
2023/12/13 08:39:26;;;;;;;13.90;5.35;;;;;;;4.04;100.00;99592.94;5078685;28;20283;-83
2023/12/13 08:41:51;;;;;;;9.48;4.55;;;;;;;3.80;100.00;99584.59;5082934;28;20110;-83
2023/12/13 08:44:17;;;;;;;9.10;4.67;;;;;;;3.89;100.00;99590.81;5054672;28;20039;-84
2023/12/13 08:46:43;;;;;;;8.10;4.65;;;;;;;4.00;100.00;99601.19;5069129;28;20479;-83
2023/12/13 08:49:09;;;;;;;7.25;4.28;;;;;;;3.95;100.00;99602.59;5077939;28;20032;-84
2023/12/13 08:51:34;;;;;;;7.78;3.58;;;;;;;3.95;100.00;99602.59;5057810;28;20033;-85
2023/12/13 08:53:59;;;;;;;6.67;4.03;;;;;;;4.07;100.00;99608.50;5063665;28;20039;-85
2023/12/13 08:56:25;;;;;;;6.32;3.78;;;;;;;3.96;100.00;99594.53;5071784;28;20255;-84
2023/12/13 08:58:50;;;;;;;9.35;4.57;;;;;;;3.77;100.00;99590.19;5048415;28;20044;-84
2023/12/13 09:01:16;;;;;;;5.78;3.33;;;;;;;4.10;100.00;99608.22;5062653;28;20037;-83
2023/12/13 09:03:41;;;;;;;7.43;3.17;;;;;;;4.06;100.00;99606.84;5063105;28;20082;-84
2023/12/13 09:06:07;;;;;;;7.30;3.60;;;;;;;3.91;100.00;99595.94;5049328;28;20303;-86
2023/12/13 09:08:33;;;;;;;7.10;3.88;;;;;;;4.22;100.00;99609.66;5055954;28;20024;-84
2023/12/13 09:10:59;;;;;;;8.38;4.45;;;;;;;4.10;100.00;99603.75;5054280;28;20771;-85
2023/12/13 09:13:24;;;;;;;8.10;4.32;;;;;;;4.26;100.00;99607.53;5050246;28;20044;-87
2023/12/13 09:15:49;;;;;;;5.72;3.75;;;;;;;4.04;100.00;99599.06;5049063;28;20039;-87
2023/12/13 09:18:15;;;;;;;9.20;4.60;;;;;;;3.87;100.00;99600.69;5070519;28;20025;-86
2023/12/13 09:20:40;;;;;;;10.63;4.05;;;;;;;3.98;100.00;99610.19;5054124;28;20475;-86
2023/12/13 09:23:06;;;;;;;8.30;4.28;;;;;;;4.05;100.00;99611.31;5051350;28;20024;-87
2023/12/13 09:25:32;;;;;;;;;;;;;;;4.10;100.00;99622.25;5059367;28;20044;-84
2023/12/13 09:27:57;;;;;;;8.02;4.55;;;;;;;4.00;100.00;99614.38;5063295;28;19981;-84
2023/12/13 09:30:23;;;;;;;12.25;5.10;;;;;;;3.95;100.00;99621.06;5046196;28;20028;-85
2023/12/13 09:32:48;;;;;;;11.32;4.55;;;;;;;3.91;100.00;99617.91;5047814;28;20033;-85
2023/12/13 09:35:14;;;;;;;6.60;4.30;;;;;;;3.95;100.00;99615.78;5058629;28;20127;-84
2023/12/13 09:37:41;;;;;;;11.00;5.13;;;;;;;4.07;100.00;99626.97;5074264;28;20286;-86
2023/12/13 09:40:14;;;;;;;11.18;5.20;;;;;;;3.81;100.00;99614.47;5074991;28;20087;-85
2023/12/13 09:42:45;;;;;;;6.63;4.25;;;;;;;3.90;100.00;99626.78;5049856;28;20142;-84
2023/12/13 09:45:16;;;;;;;10.80;4.93;;;;;;;3.78;100.00;99614.78;5042745;28;20032;-84
2023/12/13 09:47:41;;;;;;;9.38;4.90;;;;;;;4.11;100.00;99628.34;5052811;28;20031;-84
2023/12/13 09:50:08;;;;;;;9.80;4.82;;;;;;;4.13;100.00;99627.22;5036135;28;20454;-83
2023/12/13 09:52:34;;;;;;;7.80;5.07;;;;;;;4.07;100.00;99632.28;5051360;28;20036;-84
2023/12/13 09:55:00;;;;;;;;;;;;;;;3.96;100.00;99625.41;5058412;28;20104;-84
2023/12/13 09:57:26;;;;;;;9.18;5.18;;;;;;;4.09;100.00;99628.50;5062083;28;19948;-84
2023/12/13 09:59:51;;;;;;;9.30;4.20;;;;;;;3.96;100.00;99620.94;5043757;28;20131;-83
2023/12/13 10:02:17;;;;;;;7.72;4.25;;;;;;;3.70;100.00;99612.03;5043366;28;20041;-84
2023/12/13 10:04:44;;;;;;;8.88;4.28;;;;;;;3.81;100.00;99625.03;5031456;28;20033;-83
2023/12/13 10:07:09;;;;;;;8.57;4.05;;;;;;;3.90;100.00;99629.44;5060639;28;20063;-85
2023/12/13 10:09:35;;;;;;;8.25;4.28;;;;;;;4.04;100.00;99635.22;5037667;28;20368;-84
2023/12/13 10:12:01;;;;;;;6.65;3.60;;;;;;;3.73;100.00;99620.50;5038355;28;20185;-85
2023/12/13 10:14:26;;;;;;;;;;;;;;;3.68;100.00;99616.63;5057048;28;20035;-84
2023/12/13 10:16:52;;;;;;;6.75;3.50;;;;;;;3.87;100.00;99626.28;5044686;28;19916;-83
2023/12/13 10:19:18;;;;;;;7.57;3.22;;;;;;;3.71;100.00;99617.16;5047024;28;20119;-84
2023/12/13 10:21:47;;;;;;;4.72;2.92;;;;;;;3.86;100.00;99630.69;5052424;28;20032;-84
2023/12/13 10:24:12;;;;;;;4.90;3.08;;;;;;;3.67;100.00;99623.69;5069039;28;20032;-87
2023/12/13 10:26:39;;;;;;;5.13;3.35;;;;;;;3.74;100.00;99630.06;5058479;22;20538;-80
2023/12/13 10:29:04;;;;;;;7.25;3.20;;;;;;;3.86;100.00;99635.16;5020388;28;20106;-80
2023/12/13 10:31:30;;;;;;;5.93;3.10;;;;;;;3.99;100.00;99636.47;5026336;28;20120;-80
2023/12/13 10:33:56;;;;;;;3.35;2.60;;;;;;;3.79;100.00;99619.91;5058136;28;20063;-80
2023/12/13 10:36:26;;;;;;;5.57;2.90;;;;;;;4.02;100.00;99644.09;5052413;28;20503;-80
2023/12/13 10:38:54;;;;;;;3.13;2.35;;;;;;;3.81;100.00;99610.00;5050313;28;20037;-80
2023/12/13 10:41:25;;;;;;;4.63;3.13;;;;;;;3.98;100.00;99628.69;5048413;28;20029;-80
2023/12/13 10:43:54;;;;;;;10.82;4.32;;;;;;;3.97;100.00;99625.22;5068243;28;20069;-80
2023/12/13 10:46:21;;;;;;;9.00;3.72;;;;;;;3.89;100.00;99619.03;5046171;28;20550;-80
2023/12/13 10:48:48;;;;;;;4.78;2.83;;;;;;;3.75;100.00;99623.81;5050617;28;20513;-80
2023/12/13 10:51:15;;;;;;;8.70;3.25;;;;;;;3.73;100.00;99623.13;5066222;28;20036;-80
2023/12/13 10:53:41;;;;;;;5.65;3.33;;;;;;;3.80;100.00;99636.59;5035351;28;20492;-79
2023/12/13 10:56:08;;;;;;;8.05;4.45;;;;;;;3.97;100.00;99633.16;5032398;28;20119;-79
2023/12/13 10:58:34;;;;;;;10.88;3.53;;;;;;;4.03;100.00;99631.75;5056482;28;20048;-79
2023/12/13 11:01:01;;;;;;;7.13;4.25;;;;;;;4.01;100.00;99625.78;5049512;28;20037;-79
2023/12/13 11:04:10;;;;;;;7.90;3.67;;;;;;;4.09;100.00;99625.03;5045751;28;20090;-79
2023/12/13 11:07:06;;;;;;;5.53;2.83;;;;;;;3.91;100.00;99624.97;5074700;28;20032;-79
2023/12/13 11:09:57;;;;;;;8.05;3.47;;;;;;;3.86;100.00;99630.69;5039080;28;20479;-80
2023/12/13 11:12:44;;;;;;;5.53;2.88;;;;;;;3.91;100.00;99646.09;5012280;28;20124;-80
2023/12/13 11:15:14;;;;;;;7.88;3.00;;;;;;;3.79;100.00;99645.47;5027393;28;20729;-80
2023/12/13 11:18:04;;;;;;;5.15;3.13;;;;;;;3.67;100.00;99631.63;5010014;28;20037;-80
2023/12/13 11:20:47;;;;;;;5.60;3.22;;;;;;;3.95;100.00;99666.78;5010655;28;20053;-79
2023/12/13 11:23:36;;;;;;;6.20;3.25;;;;;;;3.95;100.00;99660.69;5026437;28;20041;-80
2023/12/13 11:26:15;;;;;;;6.70;4.07;;;;;;;3.99;100.00;99665.53;4993297;28;20091;-80
2023/12/13 11:29:16;;;;;;;6.07;3.65;;;;;;;3.83;100.00;99657.41;4997700;28;20052;-80
2023/12/13 11:32:00;;;;;;;8.85;4.20;;;;;;;3.93;100.00;99676.69;4979281;28;20046;-80
2023/12/13 11:34:54;;;;;;;8.73;3.83;;;;;;;3.92;100.00;99663.63;4980785;28;20042;-80
2023/12/13 11:37:40;;;;;;;9.82;4.68;;;;;;;4.19;100.00;99684.78;4966835;28;20610;-80
2023/12/13 11:40:10;;;;;;;5.82;3.13;;;;;;;3.92;100.00;99682.13;4971621;28;20042;-80
2023/12/13 11:42:54;;;;;;;5.13;3.35;;;;;;;3.83;100.00;99662.69;5027682;28;20045;-80
2023/12/13 11:45:29;;;;;;;7.95;4.30;;;;;;;4.04;100.00;99678.28;5021211;28;20159;-79
2023/12/13 11:48:01;;;;;;;8.30;3.50;;;;;;;3.94;100.00;99664.31;5022447;28;20042;-80
2023/12/13 11:50:40;;;;;;;4.78;3.38;;;;;;;3.90;100.00;99657.66;5003575;28;20042;-80
2023/12/13 11:53:17;;;;;;;4.75;2.85;;;;;;;3.73;100.00;99657.44;5006061;28;20121;-80
2023/12/13 11:56:12;;;;;;;9.23;3.58;;;;;;;3.93;100.00;99678.47;5005750;28;20076;-80
2023/12/13 11:58:49;;;;;;;8.48;4.32;;;;;;;3.94;100.00;99677.53;5006460;28;20069;-81
2023/12/13 12:01:19;;;;;;;7.38;3.15;;;;;;;4.03;100.00;99679.28;4997489;28;20611;-81
2023/12/13 12:04:27;;;;;;;11.23;4.55;;;;;;;4.06;100.00;99668.41;5022988;28;20034;-80
2023/12/13 12:07:07;;;;;;;7.80;4.07;;;;;;;3.92;100.00;99661.00;5011045;28;20050;-80